createdAt,value
2022-12-12T00:01:39.316Z,28.70
2022-12-12T00:04:07.728Z,30.30
2022-12-12T00:06:36.337Z,31.90
2022-12-12T00:09:05.055Z,30.00
2022-12-12T00:11:33.396Z,31.70
2022-12-12T00:14:01.592Z,35.10
2022-12-12T00:16:30.033Z,32.10
2022-12-12T00:18:58.343Z,33.50
2022-12-12T00:21:29.587Z,33.00
2022-12-12T00:23:58.085Z,33.60
2022-12-12T00:26:30.104Z,31.50
2022-12-12T00:29:00.010Z,31.30
2022-12-12T00:31:29.361Z,32.80
2022-12-12T00:33:57.721Z,28.20
2022-12-12T00:36:28.452Z,25.40
2022-12-12T00:38:57.747Z,24.20
2022-12-12T00:41:26.307Z,29.90
2022-12-12T00:43:54.515Z,31.00
2022-12-12T00:46:24.617Z,26.50
2022-12-12T00:48:57.915Z,31.30
2022-12-12T00:51:28.919Z,28.90
2022-12-12T00:53:58.430Z,34.90
2022-12-12T00:56:29.161Z,30.20
2022-12-12T00:58:57.373Z,32.30
2022-12-12T01:01:28.887Z,30.60
2022-12-12T01:03:57.508Z,31.50
2022-12-12T01:06:26.588Z,25.30
2022-12-12T01:08:55.083Z,31.90
2022-12-12T01:11:23.511Z,27.70
2022-12-12T01:13:53.074Z,22.50
2022-12-12T01:16:22.633Z,26.30
2022-12-12T01:18:51.243Z,24.40
2022-12-12T01:21:20.603Z,23.20
2022-12-12T01:23:48.943Z,27.90
2022-12-12T01:26:20.272Z,30.10
2022-12-12T01:28:49.351Z,32.60
2022-12-12T01:31:17.769Z,32.50
2022-12-12T01:33:46.388Z,29.90
2022-12-12T01:36:16.906Z,27.10
2022-12-12T01:38:50.673Z,32.80
2022-12-12T01:41:20.710Z,29.30
2022-12-12T01:43:49.187Z,25.60
2022-12-12T01:46:35.452Z,25.50
2022-12-12T01:49:27.627Z,27.40
2022-12-12T01:52:00.849Z,27.90
2022-12-12T01:54:36.348Z,31.70
2022-12-12T01:57:10.996Z,27.30
2022-12-12T01:59:40.352Z,30.80
2022-12-12T02:06:04.318Z,36.00
2022-12-12T02:08:33.761Z,27.80
2022-12-12T02:11:02.139Z,24.40
2022-12-12T02:13:33.243Z,27.30
2022-12-12T02:16:28.695Z,24.40
2022-12-12T02:19:02.834Z,22.40
2022-12-12T02:21:38.843Z,26.10
2022-12-12T02:24:22.951Z,23.40
2022-12-12T02:27:09.327Z,37.20
2022-12-12T02:29:58.617Z,29.20
2022-12-12T02:33:03.809Z,29.20
2022-12-12T02:35:31.946Z,30.00
2022-12-12T02:38:17.543Z,27.30
2022-12-12T02:41:03.892Z,26.00
2022-12-12T02:43:47.785Z,27.10
2022-12-12T02:46:29.273Z,19.90
2022-12-12T02:49:03.067Z,23.70
2022-12-12T02:51:33.556Z,23.70
2022-12-12T02:54:04.939Z,30.40
2022-12-12T02:56:50.566Z,29.50
2022-12-12T02:59:30.447Z,29.00
2022-12-12T03:02:35.530Z,30.20
2022-12-12T03:05:37.665Z,31.50
2022-12-12T03:08:23.929Z,31.80
2022-12-12T03:11:04.798Z,32.50
2022-12-12T03:14:07.347Z,32.40
2022-12-12T03:16:58.517Z,26.80
2022-12-12T03:19:30.810Z,23.10
2022-12-12T03:22:06.379Z,24.00
2022-12-12T03:24:41.862Z,23.50
2022-12-12T03:27:12.995Z,27.50
2022-12-12T03:32:17.575Z,29.50
2022-12-12T03:35:00.566Z,34.10
2022-12-12T03:37:37.877Z,28.60
2022-12-12T03:40:11.769Z,29.80
2022-12-12T03:42:48.032Z,29.90
2022-12-12T03:45:51.737Z,29.00
2022-12-12T03:48:30.820Z,26.90
2022-12-12T03:51:04.709Z,24.40
2022-12-12T03:53:42.449Z,24.70
2022-12-12T03:56:25.389Z,27.20
2022-12-12T03:59:12.209Z,31.10
2022-12-12T04:01:49.453Z,30.60
2022-12-12T04:04:21.837Z,28.00
2022-12-12T04:06:59.740Z,28.90
2022-12-12T04:09:47.414Z,28.30
2022-12-12T04:12:42.631Z,23.70
2022-12-12T04:15:36.923Z,22.40
2022-12-12T04:18:31.289Z,22.30
2022-12-12T04:21:34.296Z,22.00
2022-12-12T04:24:14.390Z,21.80
2022-12-12T04:27:01.273Z,25.90
2022-12-12T04:30:04.287Z,29.20
2022-12-12T04:32:49.543Z,28.20
2022-12-12T04:35:27.668Z,28.00
2022-12-12T04:37:58.667Z,28.70
2022-12-12T04:43:12.369Z,22.10
2022-12-12T04:45:44.436Z,23.00
2022-12-12T04:48:17.956Z,22.20
2022-12-12T04:50:49.962Z,20.30
2022-12-12T04:53:26.741Z,25.50
2022-12-12T04:56:01.532Z,20.80
2022-12-12T04:58:29.939Z,25.20
2022-12-12T05:01:18.915Z,25.30
2022-12-12T05:03:58.543Z,24.10
2022-12-12T05:06:42.061Z,23.80
2022-12-12T05:09:11.939Z,26.20
2022-12-12T05:11:41.649Z,21.50
2022-12-12T05:14:10.663Z,24.70
2022-12-12T05:16:44.867Z,21.80
2022-12-12T05:19:13.278Z,23.80
2022-12-12T05:21:41.606Z,20.20
2022-12-12T05:24:10.095Z,20.30
2022-12-12T05:26:38.480Z,19.40
2022-12-12T05:29:07.679Z,19.00
2022-12-12T05:31:36.248Z,20.40
2022-12-12T05:34:04.917Z,22.60
2022-12-12T05:36:33.064Z,20.40
2022-12-12T05:39:01.195Z,28.30
2022-12-12T05:41:29.371Z,21.60
2022-12-12T05:43:57.650Z,23.00
2022-12-12T05:46:25.854Z,23.40
2022-12-12T05:48:54.023Z,20.70
2022-12-12T05:51:22.261Z,22.10
2022-12-12T05:53:50.724Z,19.40
2022-12-12T05:56:19.834Z,20.40
2022-12-12T05:58:48.034Z,17.10
2022-12-12T06:01:16.232Z,18.30
2022-12-12T06:03:44.541Z,22.30
2022-12-12T06:06:12.934Z,21.00
2022-12-12T06:08:41.156Z,21.90
2022-12-12T06:11:09.384Z,20.10
2022-12-12T06:13:38.389Z,22.50
2022-12-12T06:16:13.072Z,19.40
2022-12-12T06:18:41.860Z,19.90
2022-12-12T06:21:12.322Z,18.90
2022-12-12T06:23:41.555Z,13.70
2022-12-12T06:26:12.086Z,13.40
2022-12-12T06:28:40.848Z,18.70
2022-12-12T06:31:12.065Z,17.00
2022-12-12T06:33:42.473Z,19.40
2022-12-12T06:36:14.750Z,22.70
2022-12-12T06:38:43.157Z,21.70
2022-12-12T06:41:14.209Z,20.80
2022-12-12T06:46:15.643Z,20.30
2022-12-12T06:48:44.498Z,18.80
2022-12-12T06:51:18.451Z,16.80
2022-12-12T06:53:47.488Z,19.30
2022-12-12T06:56:18.461Z,20.90
2022-12-12T06:58:47.365Z,18.70
2022-12-12T07:01:19.511Z,23.30
2022-12-12T07:03:52.055Z,13.80
2022-12-12T07:06:23.544Z,60.50
2022-12-12T07:08:52.672Z,43.20
2022-12-12T07:11:25.359Z,37.40
2022-12-12T07:13:55.780Z,22.30
2022-12-12T07:16:24.613Z,20.40
2022-12-12T07:18:52.884Z,21.20
2022-12-12T07:21:21.404Z,19.90
2022-12-12T07:23:49.533Z,18.40
2022-12-12T07:26:20.956Z,20.90
2022-12-12T07:28:49.806Z,19.80
2022-12-12T07:31:21.197Z,18.60
2022-12-12T07:33:49.451Z,19.40
2022-12-12T07:36:18.104Z,17.10
2022-12-12T07:38:46.250Z,23.20
2022-12-12T07:41:17.042Z,24.80
2022-12-12T07:43:49.727Z,24.20
2022-12-12T07:46:22.253Z,23.70
2022-12-12T07:48:55.861Z,19.50
2022-12-12T07:51:24.585Z,22.50
2022-12-12T07:53:53.057Z,22.90
2022-12-12T07:56:21.471Z,22.10
2022-12-12T07:58:51.424Z,21.30
2022-12-12T08:01:24.202Z,20.80
2022-12-12T08:03:53.578Z,17.20
2022-12-12T08:06:23.432Z,17.20
2022-12-12T08:08:52.938Z,22.50
2022-12-12T08:11:24.107Z,22.30
2022-12-12T08:13:53.653Z,23.00
2022-12-12T08:16:27.993Z,24.50
2022-12-12T08:18:57.658Z,20.20
2022-12-12T08:21:27.186Z,17.70
2022-12-12T08:23:59.924Z,19.50
2022-12-12T08:26:30.072Z,23.20
2022-12-12T08:28:58.925Z,21.80
2022-12-12T08:31:27.733Z,20.30
2022-12-12T08:33:56.550Z,18.80
2022-12-12T08:36:32.802Z,17.10
2022-12-12T08:39:13.118Z,21.50
2022-12-12T08:41:43.347Z,21.60
2022-12-12T08:44:12.961Z,21.80
2022-12-12T08:46:42.126Z,23.50
2022-12-12T08:49:11.640Z,22.20
2022-12-12T08:51:41.363Z,26.30
2022-12-12T08:54:12.548Z,21.90
2022-12-12T08:56:41.082Z,22.60
2022-12-12T08:59:09.616Z,21.30
2022-12-12T09:01:38.352Z,23.20
2022-12-12T09:04:06.606Z,20.90
2022-12-12T09:06:35.487Z,21.10
2022-12-12T09:09:03.741Z,21.00
2022-12-12T09:11:31.979Z,26.00
2022-12-12T09:14:00.268Z,22.70
2022-12-12T09:16:30.238Z,25.90
2022-12-12T09:18:58.506Z,22.70
2022-12-12T09:21:26.811Z,20.90
2022-12-12T09:23:55.394Z,17.30
2022-12-12T09:26:23.591Z,17.50
2022-12-12T09:28:51.782Z,19.60
2022-12-12T09:31:20.515Z,15.80
2022-12-12T09:33:50.659Z,14.70
2022-12-12T09:36:19.089Z,18.20
2022-12-12T09:38:47.389Z,19.70
2022-12-12T09:41:27.167Z,22.60
2022-12-12T09:44:12.577Z,19.80
2022-12-12T09:46:44.298Z,18.40
2022-12-12T09:49:16.036Z,17.90
2022-12-12T09:51:48.604Z,19.40
2022-12-12T09:54:22.986Z,14.80
2022-12-12T09:56:53.770Z,14.90
2022-12-12T09:59:38.996Z,15.90
2022-12-12T10:02:16.102Z,16.90
2022-12-12T10:05:04.916Z,18.10
2022-12-12T10:07:46.512Z,16.60
2022-12-12T10:10:17.461Z,19.10
2022-12-12T10:12:47.577Z,15.70
2022-12-12T10:15:31.289Z,16.60
2022-12-12T10:18:02.928Z,15.30
2022-12-12T10:20:36.875Z,18.20
2022-12-12T10:23:21.944Z,18.80
2022-12-12T10:26:05.304Z,15.60
2022-12-12T10:28:35.026Z,18.00
2022-12-12T10:31:18.983Z,15.90
2022-12-12T10:34:05.642Z,18.70
2022-12-12T10:37:00.647Z,16.40
2022-12-12T10:39:34.741Z,15.40
2022-12-12T10:42:23.624Z,18.10
2022-12-12T10:45:03.241Z,18.40
2022-12-12T10:47:32.365Z,16.40
2022-12-12T10:50:20.425Z,17.30
2022-12-12T10:52:49.118Z,19.30
2022-12-12T10:55:23.244Z,17.70
2022-12-12T10:58:03.901Z,17.10
2022-12-12T11:00:34.921Z,17.70
2022-12-12T11:03:28.223Z,19.20
2022-12-12T11:05:57.575Z,15.40
2022-12-12T11:08:30.499Z,15.40
2022-12-12T11:11:19.634Z,17.10
2022-12-12T11:14:03.292Z,16.00
2022-12-12T11:16:43.988Z,16.20
2022-12-12T11:19:21.996Z,14.40
2022-12-12T11:21:50.692Z,16.30
2022-12-12T11:24:31.465Z,16.80
2022-12-12T11:27:02.863Z,14.80
2022-12-12T11:29:41.352Z,16.20
2022-12-12T11:32:19.576Z,16.30
2022-12-12T11:34:53.416Z,16.70
2022-12-12T11:37:37.137Z,13.60
2022-12-12T11:40:07.585Z,15.00
2022-12-12T11:42:35.790Z,14.30
2022-12-12T11:45:21.357Z,15.10
2022-12-12T11:47:49.719Z,14.30
2022-12-12T11:50:26.220Z,16.40
2022-12-12T11:53:03.829Z,14.90
2022-12-12T11:55:44.648Z,13.50
2022-12-12T11:58:15.768Z,15.00
2022-12-12T12:00:59.244Z,14.80
2022-12-12T12:03:40.322Z,12.10
2022-12-12T12:09:07.878Z,13.80
2022-12-12T12:11:38.945Z,18.70
2022-12-12T12:14:10.732Z,15.50
2022-12-12T12:17:02.337Z,14.40
2022-12-12T12:19:42.684Z,12.80
2022-12-12T12:22:19.767Z,15.10
2022-12-12T12:24:47.944Z,13.90
2022-12-12T12:27:39.447Z,12.60
2022-12-12T12:30:21.464Z,13.10
2022-12-12T12:33:01.858Z,14.00
2022-12-12T12:35:43.855Z,16.40
2022-12-12T12:38:25.547Z,15.00
2022-12-12T12:41:22.433Z,16.00
2022-12-12T12:44:11.823Z,13.30
2022-12-12T12:46:49.381Z,12.50
2022-12-12T12:49:33.082Z,14.30
2022-12-12T12:52:09.826Z,12.10
2022-12-12T12:54:40.620Z,11.70
2022-12-12T12:57:14.569Z,16.20
2022-12-12T12:59:51.679Z,14.10
2022-12-12T13:02:33.543Z,17.10
2022-12-12T13:05:07.826Z,16.60
2022-12-12T13:07:55.062Z,15.60
2022-12-12T13:10:27.477Z,14.30
2022-12-12T13:13:01.757Z,15.50
2022-12-12T13:15:47.825Z,15.80
2022-12-12T13:18:18.082Z,10.90
2022-12-12T13:20:55.918Z,15.80
2022-12-12T13:23:55.713Z,18.30
2022-12-12T13:26:39.237Z,15.40
2022-12-12T13:29:46.464Z,13.50
2022-12-12T13:32:36.556Z,14.30
2022-12-12T13:35:10.719Z,14.60
2022-12-12T13:37:53.881Z,13.40
2022-12-12T13:40:30.529Z,13.90
2022-12-12T13:43:07.451Z,13.90
2022-12-12T13:45:43.342Z,15.50
2022-12-12T13:48:29.487Z,18.30
2022-12-12T13:51:34.714Z,16.50
2022-12-12T13:54:14.174Z,15.90
2022-12-12T13:56:53.525Z,14.90
2022-12-12T13:59:27.663Z,14.40
2022-12-12T14:02:01.171Z,18.40
2022-12-12T14:04:32.329Z,16.10
2022-12-12T14:07:03.255Z,15.20
2022-12-12T14:09:47.831Z,13.20
2022-12-12T14:12:29.148Z,17.80
2022-12-12T14:15:05.419Z,17.60
2022-12-12T14:17:42.074Z,21.40
2022-12-12T14:20:30.628Z,18.70
2022-12-12T14:23:07.410Z,15.60
2022-12-12T14:25:38.757Z,13.10
2022-12-12T14:28:18.235Z,15.90
2022-12-12T14:30:48.705Z,13.50
2022-12-12T14:33:16.931Z,18.20
2022-12-12T14:35:45.022Z,12.60
2022-12-12T14:38:28.411Z,15.50
2022-12-12T14:41:03.076Z,18.40
2022-12-12T14:43:37.202Z,21.90
2022-12-12T14:46:05.899Z,20.50
2022-12-12T14:48:35.949Z,19.30
2022-12-12T14:51:04.174Z,17.50
2022-12-12T14:53:54.049Z,15.90
2022-12-12T14:56:30.535Z,12.90
2022-12-12T14:59:05.296Z,14.10
2022-12-12T15:01:49.698Z,19.10
2022-12-12T15:04:28.095Z,15.50
2022-12-12T15:06:58.639Z,19.40
2022-12-12T15:09:34.199Z,19.70
2022-12-12T15:12:14.057Z,20.80
2022-12-12T15:14:48.499Z,14.20
2022-12-12T15:17:35.991Z,16.00
2022-12-12T15:20:09.912Z,15.90
2022-12-12T15:22:48.572Z,18.10
2022-12-12T15:25:19.594Z,13.80
2022-12-12T15:27:55.628Z,14.10
2022-12-12T15:30:37.215Z,14.50
2022-12-12T15:33:14.871Z,13.50
2022-12-12T15:35:55.066Z,16.10
2022-12-12T15:38:26.428Z,15.30
2022-12-12T15:40:58.167Z,14.60
2022-12-12T15:43:28.950Z,14.60
2022-12-12T15:46:00.263Z,17.80
2022-12-12T15:48:28.460Z,15.60
2022-12-12T15:51:01.686Z,14.60
2022-12-12T15:53:35.762Z,16.40
2022-12-12T15:56:09.413Z,17.20
2022-12-12T15:58:43.728Z,14.60
2022-12-12T16:01:20.281Z,14.80
2022-12-12T16:03:54.915Z,14.10
2022-12-12T16:06:32.457Z,14.20
2022-12-12T16:09:15.770Z,14.50
2022-12-12T16:11:46.354Z,14.30
2022-12-12T16:14:23.878Z,15.90
2022-12-12T16:17:10.883Z,17.20
2022-12-12T16:20:07.649Z,16.60
2022-12-12T16:22:50.314Z,17.10
2022-12-12T16:25:23.252Z,15.00
2022-12-12T16:28:10.048Z,15.10
2022-12-12T16:30:42.073Z,13.60
2022-12-12T16:33:51.990Z,14.50
2022-12-12T16:36:20.062Z,16.20
2022-12-12T16:38:48.290Z,11.50
2022-12-12T16:41:18.451Z,16.70
2022-12-12T16:43:46.856Z,19.10
2022-12-12T16:46:21.404Z,17.30
2022-12-12T16:48:50.738Z,19.50
2022-12-12T16:51:26.486Z,17.60
2022-12-12T16:53:55.603Z,14.40
2022-12-12T16:56:24.843Z,14.20
2022-12-12T16:58:53.478Z,17.80
2022-12-12T17:01:22.353Z,15.10
2022-12-12T17:03:50.623Z,17.30
2022-12-12T17:06:18.954Z,12.30
2022-12-12T17:08:47.138Z,16.60
2022-12-12T17:11:15.494Z,14.40
2022-12-12T17:13:48.674Z,12.40
2022-12-12T17:16:19.378Z,15.60
2022-12-12T17:18:51.008Z,11.30
2022-12-12T17:21:19.458Z,13.10
2022-12-12T17:23:47.524Z,17.00
2022-12-12T17:26:15.991Z,15.20
2022-12-12T17:28:45.049Z,14.00
2022-12-12T17:31:13.333Z,12.40
2022-12-12T17:33:50.047Z,12.60
2022-12-12T17:36:19.910Z,13.30
2022-12-12T17:38:48.745Z,12.20
2022-12-12T17:41:17.138Z,16.10
2022-12-12T17:43:49.335Z,20.30
2022-12-12T17:46:20.454Z,20.10
2022-12-12T17:48:49.091Z,17.70
2022-12-12T17:51:20.980Z,14.50
2022-12-12T17:53:51.262Z,15.10
2022-12-12T17:56:22.719Z,13.50
2022-12-12T17:58:51.266Z,18.00
2022-12-12T18:01:29.274Z,17.40
2022-12-12T18:03:59.462Z,18.00
2022-12-12T18:06:31.943Z,11.90
2022-12-12T18:09:01.029Z,13.80
2022-12-12T18:11:31.672Z,16.10
2022-12-12T18:14:02.258Z,12.30
2022-12-12T18:16:32.366Z,17.00
2022-12-12T18:19:01.920Z,14.20
2022-12-12T18:24:23.336Z,16.40
2022-12-12T18:26:53.732Z,17.10
2022-12-12T18:29:22.867Z,15.10
2022-12-12T18:31:51.280Z,17.60
2022-12-12T18:34:19.970Z,16.40
2022-12-12T18:36:49.368Z,19.60
2022-12-12T18:39:17.939Z,15.80
2022-12-12T18:41:46.288Z,16.30
2022-12-12T18:44:15.470Z,16.50
2022-12-12T18:46:44.101Z,17.30
2022-12-12T18:49:15.696Z,17.10
2022-12-12T18:51:47.744Z,17.60
2022-12-12T18:54:16.753Z,18.50
2022-12-12T18:56:46.738Z,17.60
2022-12-12T18:59:15.973Z,14.20
2022-12-12T19:01:44.305Z,12.90
2022-12-12T19:04:19.307Z,18.80
2022-12-12T19:06:49.480Z,18.70
2022-12-12T19:09:20.112Z,18.90
2022-12-12T19:11:48.748Z,19.40
2022-12-12T19:14:17.666Z,16.30
2022-12-12T19:16:46.055Z,13.30
2022-12-12T19:19:14.975Z,17.20
2022-12-12T19:21:43.543Z,18.40
2022-12-12T19:24:14.851Z,19.60
2022-12-12T19:26:45.775Z,19.00
2022-12-12T19:29:17.583Z,18.20
2022-12-12T19:31:46.040Z,18.50
2022-12-12T19:34:16.450Z,14.40
2022-12-12T19:36:44.911Z,20.00
2022-12-12T19:39:13.395Z,18.20
2022-12-12T19:41:42.112Z,18.50
2022-12-12T19:44:13.109Z,21.20
2022-12-12T19:46:45.664Z,20.60
2022-12-12T19:49:18.307Z,19.30
2022-12-12T19:51:47.397Z,16.60
2022-12-12T19:54:18.976Z,17.60
2022-12-12T19:56:47.757Z,17.40
2022-12-12T19:59:18.441Z,15.10
2022-12-12T20:01:47.518Z,19.80
2022-12-12T20:04:18.961Z,21.00
2022-12-12T20:06:49.321Z,17.00
2022-12-12T20:09:23.558Z,17.20
2022-12-12T20:11:52.427Z,15.10
2022-12-12T20:14:32.548Z,18.10
2022-12-12T20:17:03.054Z,20.80
2022-12-12T20:19:32.031Z,20.30
2022-12-12T20:22:01.861Z,19.50
2022-12-12T20:24:33.361Z,18.60
2022-12-12T20:27:03.695Z,15.40
2022-12-12T20:29:32.319Z,17.40
2022-12-12T20:32:01.726Z,16.40
2022-12-12T20:34:30.216Z,16.80
2022-12-12T20:36:58.899Z,18.00
2022-12-12T20:39:27.542Z,19.40
2022-12-12T20:41:57.109Z,19.40
2022-12-12T20:44:25.875Z,13.50
2022-12-12T20:46:54.240Z,11.60
2022-12-12T20:49:24.134Z,15.90
2022-12-12T20:51:55.772Z,21.70
2022-12-12T20:54:26.538Z,18.90
2022-12-12T20:56:54.867Z,17.10
2022-12-12T20:59:24.213Z,14.40
2022-12-12T21:01:53.285Z,16.80
2022-12-12T21:04:22.150Z,16.00
2022-12-12T21:06:51.998Z,15.60
2022-12-12T21:09:25.766Z,16.50
2022-12-12T21:11:56.872Z,17.90
2022-12-12T21:14:26.405Z,15.40
2022-12-12T21:16:54.720Z,17.40
2022-12-12T21:19:23.992Z,16.80
2022-12-12T21:21:52.666Z,17.40
2022-12-12T21:24:21.257Z,14.50
2022-12-12T21:26:49.547Z,17.80
2022-12-12T21:29:18.147Z,18.50
2022-12-12T21:31:51.391Z,21.50
2022-12-12T21:34:22.658Z,22.40
2022-12-12T21:36:52.947Z,17.70
2022-12-12T21:39:23.498Z,17.10
2022-12-12T21:41:51.786Z,17.60
2022-12-12T21:44:21.027Z,22.50
2022-12-12T21:46:49.863Z,23.10
2022-12-12T21:49:26.658Z,27.20
2022-12-12T21:52:03.915Z,21.90
2022-12-12T21:54:32.494Z,20.90
2022-12-12T21:57:01.600Z,16.70
2022-12-12T21:59:30.522Z,18.50
2022-12-12T22:02:00.305Z,17.40
2022-12-12T22:04:29.198Z,17.20
2022-12-12T22:06:58.319Z,18.40
2022-12-12T22:09:26.650Z,23.80
2022-12-12T22:12:04.044Z,21.80
2022-12-12T22:14:34.369Z,18.60
2022-12-12T22:17:04.469Z,17.80
2022-12-12T22:19:32.833Z,19.00
2022-12-12T22:22:01.103Z,20.40
2022-12-12T22:24:29.559Z,20.30
2022-12-12T22:26:57.666Z,16.00
2022-12-12T22:29:26.032Z,21.40
2022-12-12T22:31:54.374Z,17.20
2022-12-12T22:34:24.486Z,18.10
2022-12-12T22:36:54.065Z,16.70
2022-12-12T22:39:25.180Z,21.20
2022-12-12T22:41:56.174Z,19.30
2022-12-12T22:44:25.590Z,21.20
2022-12-12T22:46:55.149Z,23.00
2022-12-12T22:49:26.115Z,20.90
2022-12-12T22:51:57.194Z,26.10
2022-12-12T22:54:27.047Z,20.70
2022-12-12T22:56:55.646Z,21.10
2022-12-12T22:59:25.511Z,17.50
2022-12-12T23:01:53.904Z,18.00
2022-12-12T23:04:22.156Z,20.50
2022-12-12T23:06:50.494Z,20.20
2022-12-12T23:09:22.163Z,23.70
2022-12-12T23:11:50.647Z,21.90
2022-12-12T23:14:21.797Z,22.20
2022-12-12T23:16:51.014Z,23.60
2022-12-12T23:19:23.455Z,22.10
2022-12-12T23:21:52.117Z,20.60
2022-12-12T23:24:20.466Z,21.40
2022-12-12T23:26:50.599Z,19.30
2022-12-12T23:29:21.163Z,18.40
2022-12-12T23:31:50.091Z,20.40
2022-12-12T23:34:24.997Z,20.60
2022-12-12T23:36:54.265Z,21.40
2022-12-12T23:39:23.386Z,17.90
2022-12-12T23:41:51.912Z,17.30
2022-12-12T23:44:22.168Z,17.30
2022-12-12T23:46:51.354Z,19.30
2022-12-12T23:49:25.592Z,19.30
2022-12-12T23:51:55.951Z,21.40
2022-12-12T23:54:32.233Z,20.70
2022-12-12T23:57:01.664Z,21.70
2022-12-12T23:59:30.146Z,18.60
